Time;durP1;ratioP1;P1;durP2;ratioP2;P2;SDS_P1;SDS_P2;PMS_P1;PMS_P2;Temp;Humidity;BMP_temperature;BMP_pressure;BME280_temperature;BME280_humidity;BME280_pressure;Samples;Min_cycle;Max_cycle;Signal;HPM_P1;HPM_P2
2023/09/13 00:01:39;;;;;;;;;;;;;;;;;;6324075;22;20386;-82
2023/09/13 00:04:06;;;;;;;;;;;;;;;;;;6296778;22;19918;-82
2023/09/13 00:06:32;;;;;;;;;;;;;;;;;;6299208;22;20323;-82
2023/09/13 00:09:00;;;;;;;;;;;;;;;;;;6296618;22;19925;-81
2023/09/13 00:11:26;;;;;;;;;;;;;;;;;;6324611;22;20555;-81
2023/09/13 00:13:53;;;;;;;;;;;;;;;;;;6297569;22;19923;-82
2023/09/13 00:16:20;;;;;;;;;;;;;;;;;;6324613;22;20305;-81
2023/09/13 00:18:47;;;;;;;;;;;;;;;;;;6295427;22;19931;-81
2023/09/13 00:21:13;;;;;;;;;;;;;;;;;;6295810;22;20450;-81
2023/09/13 00:23:43;;;;;;;;;;;;;;;;;;6324328;22;19930;-81
2023/09/13 00:26:11;;;;;;;;;;;;;;;;;;6321475;22;20275;-82
2023/09/13 00:28:37;;;;;;;;;;;;;;;;;;6323949;22;19922;-81
2023/09/13 00:31:03;;;;;;;;;;;;;;;;;;6325434;22;19918;-82
2023/09/13 00:33:32;;;;;;;;;;;;;;;;;;6322431;22;19919;-81
2023/09/13 00:36:00;;;;;;;;;;;;;;;;;;6297256;22;19919;-82
2023/09/13 00:38:26;;;;;;;;;;;;;;;;;;6324361;22;19923;-81
2023/09/13 00:40:56;;;;;;;;;;;;;;;;;;6328367;22;19915;-82
2023/09/13 00:43:25;;;;;;;;;;;;;;;;;;6322037;22;19926;-82
2023/09/13 00:45:51;;;;;;;;;;;;;;;;;;6296747;22;19918;-81
2023/09/13 00:48:17;;;;;;;;;;;;;;;;;;6299312;22;19926;-81
2023/09/13 00:50:54;;;;;;;;;;;;;;;;;;6298952;22;19944;-82
2023/09/13 00:53:24;;;;;;;;;;;;;;;;;;6298834;22;19922;-82
2023/09/13 00:55:53;;;;;;;;;;;;;;;;;;6322266;22;20549;-82
2023/09/13 00:58:20;;;;;;;;;;;;;;;;;;6298136;22;20021;-82
2023/09/13 01:00:46;;;;;;;;;;;;;;;;;;6295589;22;19918;-81
2023/09/13 01:03:14;;;;;;;;;;;;;;;;;;6298249;22;20415;-82
2023/09/13 01:05:40;;;;;;;;;;;;;;;;;;6327029;22;19993;-82
2023/09/13 01:08:07;;;;;;;;;;;;;;;;;;6321729;22;19953;-81
2023/09/13 01:10:34;;;;;;;;;;;;;;;;;;6324986;22;19918;-82
2023/09/13 01:13:04;;;;;;;;;;;;;;;;;;6293766;22;19919;-82
2023/09/13 01:15:30;;;;;;;;;;;;;;;;;;6269030;22;19918;-81
2023/09/13 01:17:56;;;;;;;;;;;;;;;;;;6320853;22;19929;-81
2023/09/13 01:20:24;;;;;;;;;;;;;;;;;;6325396;22;19915;-82
2023/09/13 01:22:55;;;;;;;;;;;;;;;;;;6319757;22;19918;-82
2023/09/13 01:25:21;;;;;;;;;;;;;;;;;;6297169;22;19919;-82
2023/09/13 01:27:49;;;;;;;;;;;;;;;;;;6295537;22;19918;-82
2023/09/13 01:30:16;;;;;;;;;;;;;;;;;;6272083;22;19950;-82
2023/09/13 01:32:44;;;;;;;;;;;;;;;;;;6323740;22;19923;-82
2023/09/13 01:35:09;;;;;;;;;;;;;;;;;;6270600;22;20091;-83
2023/09/13 01:37:37;;;;;;;;;;;;;;;;;;6293673;22;20445;-83
2023/09/13 01:40:06;;;;;;;;;;;;;;;;;;6325217;22;19974;-82
2023/09/13 01:42:36;;;;;;;;;;;;;;;;;;6323786;22;19934;-83
2023/09/13 01:45:03;;;;;;;;;;;;;;;;;;6325061;22;19929;-83
2023/09/13 01:47:30;;;;;;;;;;;;;;;;;;6276021;22;19968;-83
2023/09/13 01:49:58;;;;;;;;;;;;;;;;;;6300512;22;20320;-83
2023/09/13 01:52:25;;;;;;;;;;;;;;;;;;6271779;22;20395;-83
2023/09/13 01:54:54;;;;;;;;;;;;;;;;;;6299104;22;19918;-83
2023/09/13 01:57:20;;;;;;;;;;;;;;;;;;6295867;22;20341;-82
2023/09/13 01:59:48;;;;;;;;;;;;;;;;;;6326487;22;20002;-83
2023/09/13 02:02:14;;;;;;;;;;;;;;;;;;6271282;22;20299;-83
2023/09/13 02:04:42;;;;;;;;;;;;;;;;;;6297007;22;19949;-83
2023/09/13 02:07:09;;;;;;;;;;;;;;;;;;6273068;22;19918;-83
2023/09/13 02:09:37;;;;;;;;;;;;;;;;;;6273878;22;19951;-83
2023/09/13 02:12:05;;;;;;;;;;;;;;;;;;6297217;22;19959;-83
2023/09/13 02:14:34;;;;;;;;;;;;;;;;;;6294783;22;19925;-82
2023/09/13 02:17:02;;;;;;;;;;;;;;;;;;6270831;22;19922;-84
2023/09/13 02:19:29;;;;;;;;;;;;;;;;;;6264089;22;19918;-83
2023/09/13 02:21:55;;;;;;;;;;;;;;;;;;6267731;22;19919;-83
2023/09/13 02:24:21;;;;;;;;;;;;;;;;;;6269672;22;19929;-83
2023/09/13 02:26:52;;;;;;;;;;;;;;;;;;6324517;22;19918;-83
2023/09/13 02:32:05;;;;;;;;;;;;;;;;;;;;;
2023/09/13 02:37:34;;;;;;;;;;;;;;;;;;6314380;22;20171;-83
2023/09/13 02:40:05;;;;;;;;;;;;;;;;;;6294300;22;19968;-83
2023/09/13 02:42:37;;;;;;;;;;;;;;;;;;6294980;22;19919;-82
2023/09/13 02:45:06;;;;;;;;;;;;;;;;;;6271353;22;19918;-83
2023/09/13 02:47:35;;;;;;;;;;;;;;;;;;6292476;22;20499;-82
2023/09/13 02:50:05;;;;;;;;;;;;;;;;;;6294989;22;19954;-82
2023/09/13 02:52:51;;;;;;;;;;;;;;;;;;6321565;22;19995;-83
2023/09/13 02:55:26;;;;;;;;;;;;;;;;;;6284294;22;19924;-83
2023/09/13 02:57:52;;;;;;;;;;;;;;;;;;6267524;22;20005;-82
2023/09/13 03:00:19;;;;;;;;;;;;;;;;;;6297602;22;20288;-82
2023/09/13 03:02:47;;;;;;;;;;;;;;;;;;6292837;22;20004;-82
2023/09/13 03:05:18;;;;;;;;;;;;;;;;;;6294521;22;20568;-83
2023/09/13 03:07:56;;;;;;;;;;;;;;;;;;6323650;22;20276;-82
2023/09/13 03:10:24;;;;;;;;;;;;;;;;;;6269997;22;19918;-82
2023/09/13 03:16:12;;;;;;;;;;;;;;;;;;6137992;23;20027;-83
2023/09/13 03:18:41;;;;;;;;;;;;;;;;;;6230087;22;20613;-84
2023/09/13 03:21:10;;;;;;;;;;;;;;;;;;6229245;22;20057;-83
2023/09/13 03:23:37;;;;;;;;;;;;;;;;;;6230200;22;19982;-83
2023/09/13 03:26:06;;;;;;;;;;;;;;;;;;6207310;22;19919;-83
2023/09/13 03:28:33;;;;;;;;;;;;;;;;;;6259462;22;19938;-83
2023/09/13 03:30:59;;;;;;;;;;;;;;;;;;6202449;23;19919;-82
2023/09/13 03:33:28;;;;;;;;;;;;;;;;;;6175638;23;19981;-83
2023/09/13 03:35:59;;;;;;;;;;;;;;;;;;6202121;23;20023;-83
2023/09/13 03:38:26;;;;;;;;;;;;;;;;;;6177480;23;20010;-83
2023/09/13 03:40:53;;;;;;;;;;;;;;;;;;6177447;23;19920;-83
2023/09/13 03:43:19;;;;;;;;;;;;;;;;;;6203904;23;20557;-83
2023/09/13 03:45:46;;;;;;;;;;;;;;;;;;6204273;23;19954;-83
2023/09/13 03:48:13;;;;;;;;;;;;;;;;;;6265499;22;19919;-83
2023/09/13 03:50:49;;;;;;;;;;;;;;;;;;6268426;22;19973;-83
2023/09/13 03:56:31;;;;;;;;;;;;;;;;;;6210862;23;20051;-86
2023/09/13 03:59:02;;;;;;;;;;;;;;;;;;6292617;22;19923;-86
2023/09/13 04:01:29;;;;;;;;;;;;;;;;;;6238904;22;20336;-86
2023/09/13 04:03:59;;;;;;;;;;;;;;;;;;6295062;22;19919;-86
2023/09/13 04:06:25;;;;;;;;;;;;;;;;;;6268820;22;19922;-86
2023/09/13 04:08:51;;;;;;;;;;;;;;;;;;6242141;22;19919;-85
2023/09/13 04:11:18;;;;;;;;;;;;;;;;;;6240330;22;19919;-86
2023/09/13 04:13:48;;;;;;;;;;;;;;;;;;6288859;22;19919;-85
2023/09/13 04:19:40;;;;;;;;;;;;;;;;;;6189853;23;19931;-85
2023/09/13 04:25:25;;;;;;;;;;;;;;;;;;6303089;22;19922;-86
2023/09/13 04:31:04;;;;;;;;;;;;;;;;;;6250179;22;19930;-86
2023/09/13 04:33:51;;;;;;;;;;;;;;;;;;6215759;22;19976;-86
2023/09/13 04:36:20;;;;;;;;;;;;;;;;;;6262829;22;19922;-86
2023/09/13 04:38:47;;;;;;;;;;;;;;;;;;6261675;22;19949;-86
2023/09/13 04:41:18;;;;;;;;;;;;;;;;;;6266379;22;19918;-87
2023/09/13 04:43:44;;;;;;;;;;;;;;;;;;6268620;22;19976;-87
2023/09/13 04:46:11;;;;;;;;;;;;;;;;;;6267707;22;19923;-87
2023/09/13 04:48:51;;;;;;;;;;;;;;;;;;;;;
2023/09/13 04:51:17;;;;;;;;;;;;;;;;;;6266394;22;20018;-88
2023/09/13 04:53:50;;;;;;;;;;;;;;;;;;6291310;22;19934;-87
2023/09/13 04:56:16;;;;;;;;;;;;;;;;;;6260671;22;19919;-86
2023/09/13 04:58:44;;;;;;;;;;;;;;;;;;6261498;22;19920;-85
2023/09/13 05:01:11;;;;;;;;;;;;;;;;;;6260956;22;20296;-86
2023/09/13 05:03:38;;;;;;;;;;;;;;;;;;6260881;22;19990;-85
2023/09/13 05:06:04;;;;;;;;;;;;;;;;;;6233979;22;19919;-85
2023/09/13 05:08:32;;;;;;;;;;;;;;;;;;6234202;22;19946;-85
2023/09/13 05:11:00;;;;;;;;;;;;;;;;;;6237723;22;20070;-85
2023/09/13 05:13:25;;;;;;;;;;;;;;;;;;6240144;22;19919;-87
2023/09/13 05:15:53;;;;;;;;;;;;;;;;;;6238458;22;19969;-86
2023/09/13 05:18:20;;;;;;;;;;;;;;;;;;6238691;22;19927;-86
2023/09/13 05:20:47;;;;;;;;;;;;;;;;;;6237716;22;20334;-85
2023/09/13 05:23:15;;;;;;;;;;;;;;;;;;6235241;22;19977;-85
2023/09/13 05:25:42;;;;;;;;;;;;;;;;;;6237993;22;20267;-84
2023/09/13 05:28:08;;;;;;;;;;;;;;;;;;6265641;22;20314;-85
2023/09/13 05:30:34;;;;;;;;;;;;;;;;;;6271041;22;20021;-85
2023/09/13 05:33:01;;;;;;;;;;;;;;;;;;6295815;22;19915;-84
2023/09/13 05:35:28;;;;;;;;;;;;;;;;;;6295818;22;20316;-85
2023/09/13 05:38:14;;;;;;;;;;;;;;;;;;6297244;22;20498;-85
2023/09/13 05:40:44;;;;;;;;;;;;;;;;;;6300066;22;19923;-82
2023/09/13 05:43:12;;;;;;;;;;;;;;;;;;6272081;22;19949;-82
2023/09/13 05:45:39;;;;;;;;;;;;;;;;;;6299425;22;19914;-82
2023/09/13 05:48:06;;;;;;;;;;;;;;;;;;6298446;22;19955;-82
2023/09/13 05:50:34;;;;;;;;;;;;;;;;;;6298327;22;19957;-86
2023/09/13 05:53:02;;;;;;;;;;;;;;;;;;6296994;22;19925;-85
2023/09/13 05:55:32;;;;;;;;;;;;;;;;;;6297563;22;20348;-85
2023/09/13 05:58:02;;;;;;;;;;;;;;;;;;6297027;22;20280;-86
2023/09/13 06:00:28;;;;;;;;;;;;;;;;;;6299505;22;19958;-86
2023/09/13 06:02:54;;;;;;;;;;;;;;;;;;6294904;22;19915;-85
2023/09/13 06:08:25;;;;;;;;;;;;;;;;;;6310300;22;19914;-86
2023/09/13 06:10:55;;;;;;;;;;;;;;;;;;6298717;22;19918;-86
2023/09/13 06:13:22;;;;;;;;;;;;;;;;;;6269759;22;19926;-86
2023/09/13 06:15:49;;;;;;;;;;;;;;;;;;6271207;22;19930;-86
2023/09/13 06:18:15;;;;;;;;;;;;;;;;;;6297986;22;19922;-87
2023/09/13 06:20:42;;;;;;;;;;;;;;;;;;6272102;22;19922;-86
2023/09/13 06:23:09;;;;;;;;;;;;;;;;;;6297665;22;20259;-86
2023/09/13 06:28:40;;;;;;;;;;;;;;;;;;6308531;22;19999;-86
2023/09/13 06:31:15;;;;;;;;;;;;;;;;;;6296281;22;19919;-86
2023/09/13 06:33:47;;;;;;;;;;;;;;;;;;6295338;22;19919;-86
2023/09/13 06:36:17;;;;;;;;;;;;;;;;;;6251892;22;19922;-87
2023/09/13 06:38:44;;;;;;;;;;;;;;;;;;6296244;22;19914;-86
2023/09/13 06:41:10;;;;;;;;;;;;;;;;;;6293385;22;19954;-85
2023/09/13 06:46:38;;;;;;;;;;;;;;;;;;6211347;22;20385;-86
2023/09/13 06:49:06;;;;;;;;;;;;;;;;;;6268777;22;19919;-86
2023/09/13 06:51:32;;;;;;;;;;;;;;;;;;6267590;22;19926;-86
2023/09/13 06:54:02;;;;;;;;;;;;;;;;;;6295130;22;20004;-87
2023/09/13 06:59:31;;;;;;;;;;;;;;;;;;6326249;22;19944;-87
2023/09/13 07:01:58;;;;;;;;;;;;;;;;;;6302183;22;19919;-86
2023/09/13 07:04:24;;;;;;;;;;;;;;;;;;6276350;22;19925;-86
2023/09/13 07:06:50;;;;;;;;;;;;;;;;;;6277524;22;20276;-86
2023/09/13 07:09:16;;;;;;;;;;;;;;;;;;6278178;22;19950;-86
2023/09/13 07:11:42;;;;;;;;;;;;;;;;;;6277768;22;19922;-87
2023/09/13 07:14:08;;;;;;;;;;;;;;;;;;6278754;22;19914;-87
2023/09/13 07:16:34;;;;;;;;;;;;;;;;;;6304163;22;19918;-87
2023/09/13 07:19:00;;;;;;;;;;;;;;;;;;6278060;22;20075;-88
2023/09/13 07:21:26;;;;;;;;;;;;;;;;;;6278807;22;19919;-87
2023/09/13 07:23:52;;;;;;;;;;;;;;;;;;6278889;22;19930;-87
2023/09/13 07:26:18;;;;;;;;;;;;;;;;;;6278494;22;19919;-87
2023/09/13 07:28:46;;;;;;;;;;;;;;;;;;6279381;22;19971;-87
2023/09/13 07:31:13;;;;;;;;;;;;;;;;;;6278118;22;19930;-87
2023/09/13 07:33:38;;;;;;;;;;;;;;;;;;6277672;22;19914;-87
2023/09/13 07:36:04;;;;;;;;;;;;;;;;;;6304457;22;19919;-87
2023/09/13 07:38:30;;;;;;;;;;;;;;;;;;6304191;22;19922;-87
2023/09/13 07:40:56;;;;;;;;;;;;;;;;;;6278794;22;19918;-87
2023/09/13 07:43:22;;;;;;;;;;;;;;;;;;6278267;22;19923;-87
2023/09/13 07:45:48;;;;;;;;;;;;;;;;;;6304564;22;19961;-87
2023/09/13 07:48:15;;;;;;;;;;;;;;;;;;6278361;22;19923;-87
2023/09/13 07:50:44;;;;;;;;;;;;;;;;;;6332484;22;19953;-86
2023/09/13 07:53:10;;;;;;;;;;;;;;;;;;6278065;22;19918;-87
2023/09/13 07:55:36;;;;;;;;;;;;;;;;;;6278848;22;19929;-87
2023/09/13 07:58:03;;;;;;;;;;;;;;;;;;6278474;22;20423;-87
2023/09/13 08:00:29;;;;;;;;;;;;;;;;;;6279614;22;19960;-87
2023/09/13 08:02:55;;;;;;;;;;;;;;;;;;6304887;22;19985;-87
2023/09/13 08:05:21;;;;;;;;;;;;;;;;;;6280587;22;19979;-87
2023/09/13 08:07:47;;;;;;;;;;;;;;;;;;6302394;22;19919;-87
2023/09/13 08:10:13;;;;;;;;;;;;;;;;;;6279802;22;19919;-87
2023/09/13 08:12:39;;;;;;;;;;;;;;;;;;6277073;22;19950;-87
2023/09/13 08:15:05;;;;;;;;;;;;;;;;;;6278237;22;19918;-87
2023/09/13 08:17:34;;;;;;;;;;;;;;;;;;6278805;22;19925;-86
2023/09/13 08:20:00;;;;;;;;;;;;;;;;;;6281212;22;19918;-87
2023/09/13 08:22:26;;;;;;;;;;;;;;;;;;6304963;22;19993;-86
2023/09/13 08:24:52;;;;;;;;;;;;;;;;;;6278099;22;20001;-87
2023/09/13 08:27:18;;;;;;;;;;;;;;;;;;6277557;22;20001;-87
2023/09/13 08:29:44;;;;;;;;;;;;;;;;;;6279344;22;19946;-87
2023/09/13 08:32:10;;;;;;;;;;;;;;;;;;6279945;22;19940;-87
2023/09/13 08:34:36;;;;;;;;;;;;;;;;;;6303578;22;19918;-87
2023/09/13 08:37:03;;;;;;;;;;;;;;;;;;6304756;22;19930;-87
2023/09/13 08:39:32;;;;;;;;;;;;;;;;;;6306706;22;19915;-87
2023/09/13 08:41:58;;;;;;;;;;;;;;;;;;6279486;22;19926;-87
2023/09/13 08:44:24;;;;;;;;;;;;;;;;;;6306972;22;19937;-87
2023/09/13 08:46:50;;;;;;;;;;;;;;;;;;6278031;22;19919;-87
2023/09/13 08:49:16;;;;;;;;;;;;;;;;;;6278734;22;19922;-87
2023/09/13 08:51:42;;;;;;;;;;;;;;;;;;6306016;22;20103;-87
2023/09/13 08:54:08;;;;;;;;;;;;;;;;;;6306086;22;20297;-86
2023/09/13 08:56:34;;;;;;;;;;;;;;;;;;6279413;22;19926;-87
2023/09/13 08:59:00;;;;;;;;;;;;;;;;;;6280367;22;19925;-87
2023/09/13 09:01:26;;;;;;;;;;;;;;;;;;6278540;22;19918;-87
2023/09/13 09:03:53;;;;;;;;;;;;;;;;;;6278538;22;19975;-87
2023/09/13 09:06:19;;;;;;;;;;;;;;;;;;6304560;22;19926;-87
2023/09/13 09:08:45;;;;;;;;;;;;;;;;;;6306069;22;19988;-87
2023/09/13 09:11:11;;;;;;;;;;;;;;;;;;6306786;22;19919;-87
2023/09/13 09:13:37;;;;;;;;;;;;;;;;;;6280536;22;19921;-87
2023/09/13 09:16:03;;;;;;;;;;;;;;;;;;6305991;22;19914;-87
2023/09/13 09:18:29;;;;;;;;;;;;;;;;;;6303490;22;19922;-88
2023/09/13 09:20:55;;;;;;;;;;;;;;;;;;6303275;22;19963;-87
2023/09/13 09:23:21;;;;;;;;;;;;;;;;;;6305733;22;20242;-87
2023/09/13 09:25:47;;;;;;;;;;;;;;;;;;6279605;22;19918;-88
2023/09/13 09:28:13;;;;;;;;;;;;;;;;;;6280220;22;20215;-87
2023/09/13 09:30:42;;;;;;;;;;;;;;;;;;6280275;22;19915;-88
2023/09/13 09:33:08;;;;;;;;;;;;;;;;;;6305206;22;19922;-87
2023/09/13 09:35:37;;;;;;;;;;;;;;;;;;6279478;22;19915;-87
2023/09/13 09:38:03;;;;;;;;;;;;;;;;;;6277990;22;19922;-87
2023/09/13 09:40:29;;;;;;;;;;;;;;;;;;6306092;22;20305;-87
2023/09/13 09:42:55;;;;;;;;;;;;;;;;;;6279465;22;19914;-88
2023/09/13 09:45:21;;;;;;;;;;;;;;;;;;6280224;22;19914;-88
2023/09/13 09:47:47;;;;;;;;;;;;;;;;;;6278593;22;19954;-87
2023/09/13 09:50:13;;;;;;;;;;;;;;;;;;6279061;22;19921;-87
2023/09/13 09:52:39;;;;;;;;;;;;;;;;;;6304654;22;19925;-87
2023/09/13 09:55:05;;;;;;;;;;;;;;;;;;6305789;22;19968;-87
2023/09/13 09:57:33;;;;;;;;;;;;;;;;;;6278974;22;19971;-87
2023/09/13 09:59:59;;;;;;;;;;;;;;;;;;6279085;22;19923;-87
2023/09/13 10:02:25;;;;;;;;;;;;;;;;;;6277205;22;20231;-87
2023/09/13 10:04:51;;;;;;;;;;;;;;;;;;6305137;22;19925;-87
2023/09/13 10:07:17;;;;;;;;;;;;;;;;;;6277696;22;19918;-87
2023/09/13 10:09:43;;;;;;;;;;;;;;;;;;6304080;22;20223;-87
2023/09/13 10:12:09;;;;;;;;;;;;;;;;;;6279745;22;19922;-87
2023/09/13 10:14:35;;;;;;;;;;;;;;;;;;6280043;22;20237;-87
2023/09/13 10:17:01;;;;;;;;;;;;;;;;;;6277607;22;19922;-87
2023/09/13 10:19:27;;;;;;;;;;;;;;;;;;6280473;22;19930;-88
2023/09/13 10:21:53;;;;;;;;;;;;;;;;;;6277739;22;20493;-87
2023/09/13 10:24:19;;;;;;;;;;;;;;;;;;6280178;22;19922;-87
2023/09/13 10:26:45;;;;;;;;;;;;;;;;;;6278764;22;19918;-87
2023/09/13 10:29:14;;;;;;;;;;;;;;;;;;6278745;22;19914;-87
2023/09/13 10:31:40;;;;;;;;;;;;;;;;;;6278236;22;19942;-87
2023/09/13 10:34:06;;;;;;;;;;;;;;;;;;6304623;22;19915;-87
2023/09/13 10:36:32;;;;;;;;;;;;;;;;;;6303478;22;19972;-88
2023/09/13 10:38:58;;;;;;;;;;;;;;;;;;6305339;22;20029;-87
2023/09/13 10:41:24;;;;;;;;;;;;;;;;;;6304549;22;19922;-87
2023/09/13 10:43:50;;;;;;;;;;;;;;;;;;6279025;22;19919;-87
2023/09/13 10:46:19;;;;;;;;;;;;;;;;;;6278868;22;20047;-87
2023/09/13 10:48:45;;;;;;;;;;;;;;;;;;6278347;22;19918;-88
2023/09/13 10:51:11;;;;;;;;;;;;;;;;;;6331219;22;20307;-87
2023/09/13 10:53:37;;;;;;;;;;;;;;;;;;6278277;22;19914;-87
2023/09/13 10:56:03;;;;;;;;;;;;;;;;;;6278771;22;19923;-87
2023/09/13 10:58:29;;;;;;;;;;;;;;;;;;6276693;22;19922;-87
2023/09/13 11:00:55;;;;;;;;;;;;;;;;;;6304271;22;19999;-87
2023/09/13 11:03:21;;;;;;;;;;;;;;;;;;6277216;22;19994;-87
2023/09/13 11:05:47;;;;;;;;;;;;;;;;;;6279351;22;20434;-88
2023/09/13 11:08:13;;;;;;;;;;;;;;;;;;6278560;22;19918;-88
2023/09/13 11:10:41;;;;;;;;;;;;;;;;;;6303596;22;19925;-87
2023/09/13 11:13:07;;;;;;;;;;;;;;;;;;6279179;22;20019;-88
2023/09/13 11:15:34;;;;;;;;;;;;;;;;;;6277703;22;20302;-88
2023/09/13 11:18:00;;;;;;;;;;;;;;;;;;6277995;22;19922;-87
2023/09/13 11:20:27;;;;;;;;;;;;;;;;;;6301984;22;19922;-89
2023/09/13 11:22:53;;;;;;;;;;;;;;;;;;6329971;22;20360;-88
2023/09/13 11:25:19;;;;;;;;;;;;;;;;;;6279142;22;19918;-88
2023/09/13 11:27:45;;;;;;;;;;;;;;;;;;6304725;22;19995;-88
2023/09/13 11:30:11;;;;;;;;;;;;;;;;;;6278743;22;19914;-88
2023/09/13 11:32:37;;;;;;;;;;;;;;;;;;6277976;22;19930;-88
2023/09/13 11:35:04;;;;;;;;;;;;;;;;;;6278554;22;19918;-88
2023/09/13 11:37:30;;;;;;;;;;;;;;;;;;6277810;22;19922;-87
2023/09/13 11:39:56;;;;;;;;;;;;;;;;;;6305431;22;19971;-87
2023/09/13 11:42:26;;;;;;;;;;;;;;;;;;6302485;22;20410;-87
2023/09/13 11:44:52;;;;;;;;;;;;;;;;;;6277589;22;19924;-87
2023/09/13 11:47:18;;;;;;;;;;;;;;;;;;6278242;22;19985;-88
2023/09/13 11:49:44;;;;;;;;;;;;;;;;;;6278939;22;20335;-87
2023/09/13 11:52:10;;;;;;;;;;;;;;;;;;6303583;22;19919;-88
2023/09/13 11:54:36;;;;;;;;;;;;;;;;;;6332701;22;19918;-88
2023/09/13 11:57:04;;;;;;;;;;;;;;;;;;6279308;22;19930;-88
2023/09/13 11:59:29;;;;;;;;;;;;;;;;;;6280442;22;20220;-87
2023/09/13 12:01:55;;;;;;;;;;;;;;;;;;6278214;22;19925;-88
2023/09/13 12:04:22;;;;;;;;;;;;;;;;;;6280612;22;20345;-87
2023/09/13 12:06:48;;;;;;;;;;;;;;;;;;6279371;22;19929;-87
2023/09/13 12:09:14;;;;;;;;;;;;;;;;;;6306023;22;19918;-88
2023/09/13 12:11:40;;;;;;;;;;;;;;;;;;6279187;22;20039;-88
2023/09/13 12:14:06;;;;;;;;;;;;;;;;;;6279922;22;20326;-87
2023/09/13 12:16:32;;;;;;;;;;;;;;;;;;6278014;22;19950;-88
2023/09/13 12:18:58;;;;;;;;;;;;;;;;;;6280096;22;19964;-89
2023/09/13 12:21:24;;;;;;;;;;;;;;;;;;6276515;22;20570;-88
2023/09/13 12:26:59;;;;;;;;;;;;;;;;;;6279799;22;20293;-85
2023/09/13 12:29:25;;;;;;;;;;;;;;;;;;6273372;22;19918;-84
2023/09/13 12:31:56;;;;;;;;;;;;;;;;;;6299821;22;19918;-84
2023/09/13 12:34:25;;;;;;;;;;;;;;;;;;6302377;22;19948;-84
2023/09/13 12:36:52;;;;;;;;;;;;;;;;;;6270412;22;19953;-83
2023/09/13 12:39:20;;;;;;;;;;;;;;;;;;6302307;22;20358;-84
2023/09/13 12:41:48;;;;;;;;;;;;;;;;;;6300937;22;19922;-84
2023/09/13 12:44:18;;;;;;;;;;;;;;;;;;6302264;22;19922;-84
2023/09/13 12:46:57;;;;;;;;;;;;;;;;;;6328002;22;19923;-84
2023/09/13 12:49:27;;;;;;;;;;;;;;;;;;6273034;22;19922;-84
2023/09/13 12:51:54;;;;;;;;;;;;;;;;;;6321210;22;19918;-84
2023/09/13 13:24:04;;;;;;;;;;;;;;;;;;6058850;23;20398;-94
2023/09/13 14:57:38;;;;;;;;;;;;;;;;;;6299074;22;19958;-83
2023/09/13 15:00:04;;;;;;;;;;;;;;;;;;6293492;22;20313;-83
2023/09/13 15:02:33;;;;;;;;;;;;;;;;;;6290710;22;20247;-84
2023/09/13 15:05:03;;;;;;;;;;;;;;;;;;6317109;22;19918;-84
2023/09/13 15:07:38;;;;;;;;;;;;;;;;;;6298654;22;19915;-84
2023/09/13 15:10:07;;;;;;;;;;;;;;;;;;6322720;22;19919;-83
2023/09/13 15:12:37;;;;;;;;;;;;;;;;;;6325857;22;19918;-84
2023/09/13 15:15:03;;;;;;;;;;;;;;;;;;6325028;22;19918;-84
2023/09/13 15:17:31;;;;;;;;;;;;;;;;;;6297742;22;19923;-84
2023/09/13 15:19:57;;;;;;;;;;;;;;;;;;6319211;22;19934;-83
2023/09/13 15:22:23;;;;;;;;;;;;;;;;;;6322933;22;19918;-83
2023/09/13 15:24:49;;;;;;;;;;;;;;;;;;6298816;22;19918;-83
2023/09/13 15:27:15;;;;;;;;;;;;;;;;;;6322976;22;19918;-84
2023/09/13 15:29:43;;;;;;;;;;;;;;;;;;6297343;22;19922;-83
2023/09/13 15:32:09;;;;;;;;;;;;;;;;;;6321472;22;19925;-83
2023/09/13 15:34:35;;;;;;;;;;;;;;;;;;6296335;22;19918;-84
2023/09/13 15:37:01;;;;;;;;;;;;;;;;;;6296228;22;20344;-84
2023/09/13 15:39:29;;;;;;;;;;;;;;;;;;6320646;22;19989;-83
2023/09/13 15:41:56;;;;;;;;;;;;;;;;;;6295249;22;20366;-83
2023/09/13 15:44:26;;;;;;;;;;;;;;;;;;6321894;22;19919;-83
2023/09/13 15:46:52;;;;;;;;;;;;;;;;;;6295738;22;20232;-83
2023/09/13 15:49:28;;;;;;;;;;;;;;;;;;6296998;22;19919;-83
2023/09/13 15:51:55;;;;;;;;;;;;;;;;;;6324997;22;20342;-83
2023/09/13 15:54:29;;;;;;;;;;;;;;;;;;6299204;22;19921;-83
2023/09/13 15:57:01;;;;;;;;;;;;;;;;;;6297038;22;19919;-84
2023/09/13 15:59:34;;;;;;;;;;;;;;;;;;6295091;22;19926;-84
2023/09/13 16:02:03;;;;;;;;;;;;;;;;;;6296858;22;19919;-84
2023/09/13 16:04:43;;;;;;;;;;;;;;;;;;;;;
2023/09/13 16:07:23;;;;;;;;;;;;;;;;;;6336961;22;20296;-84
2023/09/13 16:10:07;;;;;;;;;;;;;;;;;;6296050;22;19925;-85
2023/09/13 16:29:04;;;;;;;;;;;;;;;;;;6320176;22;19938;-83
2023/09/13 16:34:29;;;;;;;;;;;;;;;;;;6288378;22;19941;-84
2023/09/13 16:40:09;;;;;;;;;;;;;;;;;;6207042;23;19969;-85
2023/09/13 16:43:16;;;;;;;;;;;;;;;;;;6181098;23;19924;-85
2023/09/13 16:46:18;;;;;;;;;;;;;;;;;;6063112;23;19921;-85
2023/09/13 16:48:55;;;;;;;;;;;;;;;;;;6033428;23;19983;-85
2023/09/13 16:51:42;;;;;;;;;;;;;;;;;;6060734;23;20668;-85
2023/09/13 16:57:20;;;;;;;;;;;;;;;;;;6143664;23;20052;-85
2023/09/13 17:03:00;;;;;;;;;;;;;;;;;;6155963;23;20156;-84
2023/09/13 17:05:32;;;;;;;;;;;;;;;;;;6143782;23;19959;-85
2023/09/13 17:08:04;;;;;;;;;;;;;;;;;;6144247;23;19946;-85
2023/09/13 17:10:30;;;;;;;;;;;;;;;;;;6166254;23;19919;-84
2023/09/13 17:13:02;;;;;;;;;;;;;;;;;;6242038;22;19923;-85
2023/09/13 17:15:38;;;;;;;;;;;;;;;;;;6243146;22;19965;-85
2023/09/13 17:18:11;;;;;;;;;;;;;;;;;;6243020;22;19927;-84
2023/09/13 17:20:50;;;;;;;;;;;;;;;;;;;;;
2023/09/13 17:23:23;;;;;;;;;;;;;;;;;;6261535;22;19942;-84
2023/09/13 17:25:51;;;;;;;;;;;;;;;;;;6240528;22;19919;-85
2023/09/13 17:28:49;;;;;;;;;;;;;;;;;;6265174;22;19922;-84
2023/09/13 17:31:22;;;;;;;;;;;;;;;;;;6293763;22;19918;-84
2023/09/13 17:33:57;;;;;;;;;;;;;;;;;;6267488;22;20220;-84
2023/09/13 17:36:26;;;;;;;;;;;;;;;;;;6265297;22;19919;-84
2023/09/13 17:38:55;;;;;;;;;;;;;;;;;;6266533;22;19923;-84
2023/09/13 17:41:24;;;;;;;;;;;;;;;;;;6267044;22;19919;-84
2023/09/13 17:43:50;;;;;;;;;;;;;;;;;;6238984;22;19946;-85
2023/09/13 17:46:23;;;;;;;;;;;;;;;;;;6264808;22;19923;-84
2023/09/13 17:48:56;;;;;;;;;;;;;;;;;;6267969;22;19942;-84
2023/09/13 17:51:28;;;;;;;;;;;;;;;;;;6267194;22;20346;-85
2023/09/13 17:53:54;;;;;;;;;;;;;;;;;;6240755;22;19918;-84
2023/09/13 17:56:32;;;;;;;;;;;;;;;;;;6265661;22;19926;-84
2023/09/13 17:59:10;;;;;;;;;;;;;;;;;;6239068;22;20330;-84
2023/09/13 18:01:38;;;;;;;;;;;;;;;;;;6241162;22;20343;-84
2023/09/13 18:04:23;;;;;;;;;;;;;;;;;;6267670;22;20358;-84
2023/09/13 18:07:02;;;;;;;;;;;;;;;;;;6241302;22;20252;-84
2023/09/13 18:12:20;;;;;;;;;;;;;;;;;;6281373;22;19986;-84
2023/09/13 18:14:46;;;;;;;;;;;;;;;;;;6264516;22;20386;-84
2023/09/13 18:17:18;;;;;;;;;;;;;;;;;;6240125;22;19972;-84
2023/09/13 18:20:03;;;;;;;;;;;;;;;;;;6270976;22;19953;-84
2023/09/13 18:22:29;;;;;;;;;;;;;;;;;;6242220;22;20650;-84
2023/09/13 18:24:59;;;;;;;;;;;;;;;;;;6268626;22;19998;-84
2023/09/13 18:27:25;;;;;;;;;;;;;;;;;;6241322;22;19968;-84
2023/09/13 18:29:51;;;;;;;;;;;;;;;;;;6242700;22;20296;-84
2023/09/13 18:32:23;;;;;;;;;;;;;;;;;;6241067;22;19918;-84
2023/09/13 18:35:22;;;;;;;;;;;;;;;;;;6242578;22;19918;-84
2023/09/13 18:37:48;;;;;;;;;;;;;;;;;;6293732;22;19930;-84
2023/09/13 18:40:30;;;;;;;;;;;;;;;;;;6267982;22;19919;-84
2023/09/13 18:42:57;;;;;;;;;;;;;;;;;;6241795;22;19923;-84
2023/09/13 18:45:23;;;;;;;;;;;;;;;;;;6268948;22;20228;-85
2023/09/13 18:47:49;;;;;;;;;;;;;;;;;;6266081;22;19919;-84
2023/09/13 18:50:16;;;;;;;;;;;;;;;;;;6267650;22;19993;-84
2023/09/13 18:52:45;;;;;;;;;;;;;;;;;;6267138;22;19945;-84
2023/09/13 18:55:21;;;;;;;;;;;;;;;;;;6240943;22;19918;-84
2023/09/13 18:57:50;;;;;;;;;;;;;;;;;;6267484;22;19982;-84
2023/09/13 19:00:16;;;;;;;;;;;;;;;;;;6265977;22;19952;-84
2023/09/13 19:08:34;;;;;;;;;;;;;;;;;;6246058;22;19929;-85
2023/09/13 19:14:29;;;;;;;;;;;;;;;;;;6202338;23;20372;-85
2023/09/13 19:20:28;;;;;;;;;;;;;;;;;;;;;
2023/09/13 19:23:20;;;;;;;;;;;;;;;;;;6303053;22;19919;-85
2023/09/13 19:25:53;;;;;;;;;;;;;;;;;;6237149;22;20711;-85
2023/09/13 19:28:39;;;;;;;;;;;;;;;;;;6257148;22;20403;-86
2023/09/13 19:31:07;;;;;;;;;;;;;;;;;;6283807;22;19923;-86
2023/09/13 19:33:59;;;;;;;;;;;;;;;;;;;;;
2023/09/13 19:36:52;;;;;;;;;;;;;;;;;;6302632;22;19918;-86
2023/09/13 19:42:20;;;;;;;;;;;;;;;;;;6267908;22;19925;-85
2023/09/13 19:44:55;;;;;;;;;;;;;;;;;;6322795;22;19942;-86
2023/09/13 19:47:29;;;;;;;;;;;;;;;;;;6295072;22;20329;-84
2023/09/13 19:50:01;;;;;;;;;;;;;;;;;;6264274;22;19971;-85
2023/09/13 19:52:27;;;;;;;;;;;;;;;;;;6265757;22;19918;-86
2023/09/13 19:54:56;;;;;;;;;;;;;;;;;;6264115;22;20279;-86
2023/09/13 20:00:53;;;;;;;;;;;;;;;;;;6205572;23;20271;-83
2023/09/13 20:03:36;;;;;;;;;;;;;;;;;;6168927;23;20423;-83
2023/09/13 20:06:07;;;;;;;;;;;;;;;;;;6230964;22;19946;-84
2023/09/13 20:08:39;;;;;;;;;;;;;;;;;;6249920;22;20050;-84
2023/09/13 20:11:25;;;;;;;;;;;;;;;;;;6231056;22;19998;-83
2023/09/13 20:13:59;;;;;;;;;;;;;;;;;;6257492;22;19930;-84
2023/09/13 20:16:26;;;;;;;;;;;;;;;;;;6230723;22;19990;-84
2023/09/13 20:18:52;;;;;;;;;;;;;;;;;;6233311;22;19919;-84
2023/09/13 20:21:20;;;;;;;;;;;;;;;;;;6232867;22;19995;-84
2023/09/13 20:23:47;;;;;;;;;;;;;;;;;;6201825;22;19920;-84
2023/09/13 20:26:13;;;;;;;;;;;;;;;;;;6235538;22;19918;-84
2023/09/13 20:28:40;;;;;;;;;;;;;;;;;;6233168;22;19919;-84